createdAt,value
2023-03-26T00:02:26.043Z,9.47
2023-03-26T00:05:28.752Z,9.43
2023-03-26T00:08:31.296Z,9.36
2023-03-26T00:11:33.966Z,9.26
2023-03-26T00:14:36.441Z,9.29
2023-03-26T00:17:38.966Z,9.37
2023-03-26T00:20:41.637Z,9.35
2023-03-26T00:23:44.555Z,9.19
2023-03-26T00:26:53.475Z,9.24
2023-03-26T00:29:56.513Z,9.16
2023-03-26T00:32:59.570Z,8.96
2023-03-26T00:36:04.783Z,8.93
2023-03-26T00:39:07.375Z,8.84
2023-03-26T00:42:10.382Z,8.88
2023-03-26T00:45:13.109Z,8.86
2023-03-26T00:48:16.477Z,8.89
2023-03-26T00:51:20.709Z,8.91
2023-03-26T00:54:23.450Z,9.01
2023-03-26T00:57:35.501Z,9.05
2023-03-26T01:00:57.437Z,8.90
2023-03-26T01:04:28.459Z,8.91
2023-03-26T01:07:32.012Z,8.94
2023-03-26T01:10:38.835Z,8.99
2023-03-26T01:14:04.503Z,8.94
2023-03-26T01:17:07.281Z,9.09
2023-03-26T01:20:30.554Z,9.06
2023-03-26T01:24:08.863Z,8.97
2023-03-26T01:27:24.629Z,9.05
2023-03-26T01:30:58.705Z,8.93
2023-03-26T01:34:21.504Z,8.96
2023-03-26T01:37:52.570Z,9.04
2023-03-26T01:40:55.529Z,9.06
2023-03-26T01:44:06.509Z,8.98
2023-03-26T01:47:08.943Z,8.95
2023-03-26T01:50:11.693Z,8.98
2023-03-26T01:53:14.184Z,8.85
2023-03-26T01:56:42.359Z,8.86
2023-03-26T01:59:44.675Z,8.95
2023-03-26T02:03:18.008Z,9.00
2023-03-26T02:06:25.839Z,8.95
2023-03-26T02:09:30.554Z,8.94
2023-03-26T02:12:33.308Z,8.82
2023-03-26T02:15:35.878Z,8.80
2023-03-26T02:18:41.263Z,8.80
2023-03-26T02:21:43.668Z,8.69
2023-03-26T02:24:46.127Z,8.64
2023-03-26T02:27:49.843Z,8.66
2023-03-26T02:30:57.688Z,8.59
2023-03-26T02:34:00.462Z,8.42
2023-03-26T02:37:05.273Z,8.44
2023-03-26T02:40:11.740Z,8.39
2023-03-26T02:43:17.361Z,8.31
2023-03-26T02:46:19.754Z,8.23
2023-03-26T02:49:36.814Z,8.15
2023-03-26T02:52:39.698Z,8.12
2023-03-26T02:55:42.360Z,8.07
2023-03-26T02:58:46.951Z,8.09
2023-03-26T03:01:49.618Z,7.98
2023-03-26T03:05:01.700Z,7.90
2023-03-26T03:08:09.673Z,7.88
2023-03-26T03:11:17.956Z,7.89
2023-03-26T03:14:24.706Z,7.81
2023-03-26T03:17:27.752Z,7.87
2023-03-26T03:20:30.636Z,7.81
2023-03-26T03:23:33.120Z,7.80
2023-03-26T03:26:48.067Z,7.81
2023-03-26T03:30:19.399Z,7.73
2023-03-26T03:33:22.001Z,7.71
2023-03-26T03:36:28.031Z,7.58
2023-03-26T03:39:40.639Z,7.61
2023-03-26T03:42:43.896Z,7.54
2023-03-26T03:45:48.024Z,7.45
2023-03-26T03:49:07.467Z,7.44
2023-03-26T03:52:12.808Z,7.52
2023-03-26T03:55:18.284Z,7.58
2023-03-26T03:58:28.379Z,7.68
2023-03-26T04:01:35.454Z,7.68
2023-03-26T04:04:46.546Z,7.67
2023-03-26T04:07:51.442Z,7.69
2023-03-26T04:11:02.811Z,7.67
2023-03-26T04:14:23.394Z,7.59
2023-03-26T04:17:42.431Z,7.63
2023-03-26T04:20:46.595Z,7.67
2023-03-26T04:23:55.708Z,7.86
2023-03-26T04:27:20.438Z,7.80
2023-03-26T04:30:23.307Z,7.76
2023-03-26T04:33:46.993Z,7.63
2023-03-26T04:36:54.681Z,7.58
2023-03-26T04:40:09.656Z,7.59
2023-03-26T04:43:16.527Z,7.46
2023-03-26T04:46:43.777Z,7.32
2023-03-26T04:49:57.977Z,7.35
2023-03-26T04:53:01.016Z,7.38
2023-03-26T04:56:45.856Z,7.24
2023-03-26T04:59:48.459Z,7.36
2023-03-26T05:02:51.081Z,7.36
2023-03-26T05:05:54.379Z,7.48
2023-03-26T05:08:57.674Z,7.60
2023-03-26T05:12:22.737Z,7.79
2023-03-26T05:15:33.406Z,7.83
2023-03-26T05:18:46.619Z,7.96
2023-03-26T05:21:49.848Z,8.10
2023-03-26T05:24:52.543Z,8.37
2023-03-26T05:27:55.396Z,8.72
2023-03-26T05:31:01.632Z,8.93
2023-03-26T05:34:08.538Z,9.11
2023-03-26T05:37:11.247Z,9.24
2023-03-26T05:40:26.254Z,9.40
2023-03-26T05:43:37.647Z,9.55
2023-03-26T05:46:49.037Z,9.72
2023-03-26T05:49:56.779Z,9.77
2023-03-26T05:52:59.631Z,9.77
2023-03-26T05:56:05.681Z,9.82
2023-03-26T05:59:26.756Z,10.08
2023-03-26T06:02:56.845Z,10.29
2023-03-26T06:06:09.745Z,10.40
2023-03-26T06:09:21.855Z,10.44
2023-03-26T06:12:24.556Z,10.35
2023-03-26T06:15:27.105Z,10.57
2023-03-26T06:18:37.846Z,10.65
2023-03-26T06:21:58.679Z,10.75
2023-03-26T06:25:08.752Z,10.70
2023-03-26T06:28:31.599Z,10.86
2023-03-26T06:31:54.240Z,10.96
2023-03-26T06:35:00.746Z,11.06
2023-03-26T06:38:03.854Z,11.14
2023-03-26T06:41:09.645Z,11.24
2023-03-26T06:44:44.516Z,11.35
2023-03-26T06:48:05.898Z,11.56
2023-03-26T06:51:34.580Z,11.63
2023-03-26T06:54:57.440Z,11.76
2023-03-26T06:58:32.134Z,12.00
2023-03-26T07:01:53.615Z,12.22
2023-03-26T07:05:14.820Z,12.39
2023-03-26T07:08:35.964Z,12.74
2023-03-26T07:12:07.727Z,12.91
2023-03-26T07:15:25.229Z,13.08
2023-03-26T07:18:30.501Z,13.22
2023-03-26T07:21:34.184Z,13.25
2023-03-26T07:24:41.075Z,13.14
2023-03-26T07:28:01.692Z,12.37
2023-03-26T07:31:45.846Z,12.76
2023-03-26T07:35:47.223Z,12.78
2023-03-26T07:39:28.558Z,13.09
2023-03-26T07:42:50.935Z,13.36
2023-03-26T07:46:06.269Z,13.51
2023-03-26T07:49:43.497Z,13.81
2023-03-26T07:53:04.760Z,13.99
2023-03-26T07:56:48.725Z,13.72
2023-03-26T08:00:40.459Z,13.62
2023-03-26T08:04:24.815Z,13.56
2023-03-26T08:08:30.034Z,13.64
2023-03-26T08:12:27.279Z,13.88
2023-03-26T08:15:45.696Z,14.20
2023-03-26T08:19:16.775Z,14.47
2023-03-26T08:22:34.339Z,14.54
2023-03-26T08:25:49.861Z,14.78
2023-03-26T08:29:12.001Z,14.36
2023-03-26T08:32:15.554Z,14.26
2023-03-26T08:35:18.106Z,14.32
2023-03-26T08:38:20.998Z,14.52
2023-03-26T08:41:32.517Z,14.54
2023-03-26T08:44:47.899Z,14.55
2023-03-26T08:48:29.886Z,14.68
2023-03-26T08:51:54.197Z,14.59
2023-03-26T08:55:32.971Z,14.82
2023-03-26T08:59:10.503Z,14.56
2023-03-26T09:02:28.176Z,15.32
2023-03-26T09:06:07.651Z,16.49
2023-03-26T09:09:47.689Z,16.30
2023-03-26T09:12:53.150Z,16.51
2023-03-26T09:16:33.292Z,17.64
2023-03-26T09:20:00.171Z,17.14
2023-03-26T09:23:21.395Z,17.19
2023-03-26T09:26:36.737Z,17.59
2023-03-26T09:30:01.185Z,18.11
2023-03-26T09:33:15.977Z,18.35
2023-03-26T09:36:22.756Z,18.23
2023-03-26T09:39:28.109Z,17.81
2023-03-26T09:42:34.863Z,17.52
2023-03-26T09:45:57.507Z,17.21
2023-03-26T09:49:29.875Z,16.74
2023-03-26T09:52:54.297Z,16.95
2023-03-26T09:56:21.687Z,17.08
2023-03-26T09:59:45.957Z,16.61
2023-03-26T10:03:00.247Z,17.86
2023-03-26T10:06:03.217Z,18.97
2023-03-26T10:09:22.941Z,17.82
2023-03-26T10:12:50.493Z,17.52
2023-03-26T10:16:17.797Z,17.10
2023-03-26T10:19:23.531Z,16.61
2023-03-26T10:22:37.696Z,15.95
2023-03-26T10:25:40.106Z,15.54
2023-03-26T10:28:59.550Z,14.93
2023-03-26T10:32:30.508Z,13.61
2023-03-26T10:35:58.149Z,13.17
2023-03-26T10:39:36.371Z,12.79
2023-03-26T10:42:59.413Z,12.57
2023-03-26T10:46:04.740Z,12.81
2023-03-26T10:49:37.722Z,13.40
2023-03-26T10:52:47.150Z,13.77
2023-03-26T10:55:53.717Z,14.97
2023-03-26T10:58:56.927Z,15.36
2023-03-26T11:02:29.710Z,17.42
2023-03-26T11:05:51.730Z,16.32
2023-03-26T11:08:54.281Z,15.78
2023-03-26T11:12:26.717Z,15.49
2023-03-26T11:15:38.480Z,14.89
2023-03-26T11:18:49.943Z,14.82
2023-03-26T11:22:20.521Z,14.61
2023-03-26T11:25:38.087Z,14.64
2023-03-26T11:29:03.204Z,14.92
2023-03-26T11:32:11.807Z,16.12
2023-03-26T11:35:40.235Z,17.42
2023-03-26T11:38:48.084Z,16.43
2023-03-26T11:42:06.332Z,16.04
2023-03-26T11:45:18.441Z,16.05
2023-03-26T11:48:20.956Z,18.18
2023-03-26T11:51:27.715Z,20.42
2023-03-26T11:54:30.145Z,21.30
2023-03-26T11:57:35.486Z,23.35
2023-03-26T12:00:38.278Z,24.33
2023-03-26T12:03:40.768Z,23.29
2023-03-26T12:07:22.349Z,20.05
2023-03-26T12:10:34.104Z,20.19
2023-03-26T12:13:43.383Z,19.21
2023-03-26T12:16:59.168Z,18.65
2023-03-26T12:20:02.365Z,21.17
2023-03-26T12:23:05.503Z,23.88
2023-03-26T12:26:17.589Z,25.28
2023-03-26T12:29:20.809Z,23.76
2023-03-26T12:32:32.476Z,25.91
2023-03-26T12:35:42.015Z,26.30
2023-03-26T12:38:46.085Z,27.69
2023-03-26T12:44:46.085Z,25.71
2023-03-26T12:46:44.203Z,26.97
2023-03-26T12:49:17.165Z,27.82
2023-03-26T12:52:41.404Z,25.17
2023-03-26T12:56:03.937Z,22.24
2023-03-26T12:59:34.271Z,20.53
2023-03-26T13:03:06.070Z,20.50
2023-03-26T13:06:26.854Z,20.68
2023-03-26T13:09:55.328Z,19.90
2023-03-26T13:13:01.532Z,18.74
2023-03-26T13:16:17.451Z,18.52
2023-03-26T13:19:19.978Z,19.67
2023-03-26T13:22:34.942Z,19.31
2023-03-26T13:25:40.729Z,21.22
2023-03-26T13:28:55.528Z,19.28
2023-03-26T13:32:16.431Z,18.57
2023-03-26T13:35:31.175Z,18.14
2023-03-26T13:38:58.538Z,19.81
2023-03-26T13:42:25.371Z,21.34
2023-03-26T13:45:38.113Z,20.16
2023-03-26T13:48:47.110Z,19.13
2023-03-26T13:52:17.510Z,19.01
2023-03-26T13:55:32.646Z,18.74
2023-03-26T13:58:48.857Z,18.64
2023-03-26T14:01:54.683Z,18.47
2023-03-26T14:05:01.408Z,18.38
2023-03-26T14:08:37.482Z,18.51
2023-03-26T14:12:06.675Z,18.71
2023-03-26T14:15:36.162Z,20.05
2023-03-26T14:18:46.751Z,21.40
2023-03-26T14:22:02.651Z,19.99
2023-03-26T14:25:17.120Z,19.07
2023-03-26T14:28:36.819Z,20.13
2023-03-26T14:31:42.881Z,19.59
2023-03-26T14:35:13.324Z,20.60
2023-03-26T14:38:21.798Z,21.11
2023-03-26T14:41:25.090Z,20.98
2023-03-26T14:44:48.684Z,20.63
2023-03-26T14:48:29.303Z,20.23
2023-03-26T14:52:17.174Z,20.47
2023-03-26T14:55:31.820Z,20.72
2023-03-26T14:58:49.495Z,20.14
2023-03-26T15:02:23.021Z,20.54
2023-03-26T15:05:41.249Z,21.06
2023-03-26T15:09:00.215Z,20.90
2023-03-26T15:12:17.973Z,20.10
2023-03-26T15:15:35.079Z,20.01
2023-03-26T15:18:56.469Z,19.99
2023-03-26T15:22:28.064Z,19.76
2023-03-26T15:25:41.548Z,19.88
2023-03-26T15:29:24.372Z,19.24
2023-03-26T15:33:05.366Z,18.69
2023-03-26T15:36:32.468Z,18.31
2023-03-26T15:40:07.869Z,18.12
2023-03-26T15:43:14.329Z,18.07
2023-03-26T15:46:19.948Z,17.76
2023-03-26T15:49:45.655Z,17.80
2023-03-26T15:53:02.740Z,17.68
2023-03-26T15:56:17.789Z,17.48
2023-03-26T15:59:33.170Z,17.28
2023-03-26T16:03:10.950Z,17.11
2023-03-26T16:06:28.132Z,17.01
2023-03-26T16:09:49.009Z,16.92
2023-03-26T16:13:12.987Z,16.69
2023-03-26T16:16:15.605Z,16.71
2023-03-26T16:19:21.929Z,16.53
2023-03-26T16:22:43.472Z,16.27
2023-03-26T16:26:09.624Z,16.09
2023-03-26T16:29:14.445Z,16.07
2023-03-26T16:32:18.426Z,15.73
2023-03-26T16:35:26.584Z,15.61
2023-03-26T16:38:50.635Z,15.49
2023-03-26T16:42:06.022Z,15.45
2023-03-26T16:45:23.845Z,15.33
2023-03-26T16:48:32.463Z,15.23
2023-03-26T16:52:10.734Z,15.04
2023-03-26T16:55:35.477Z,15.00
2023-03-26T16:58:40.972Z,14.99
2023-03-26T17:01:48.335Z,14.91
2023-03-26T17:04:54.117Z,14.79
2023-03-26T17:08:16.510Z,14.69
2023-03-26T17:11:25.464Z,14.63
2023-03-26T17:14:41.692Z,14.60
2023-03-26T17:18:14.348Z,14.34
2023-03-26T17:21:25.139Z,14.31
2023-03-26T17:24:39.095Z,14.22
2023-03-26T17:28:33.270Z,14.10
2023-03-26T17:32:08.893Z,14.08
2023-03-26T17:35:14.525Z,13.98
2023-03-26T17:38:17.646Z,14.12
2023-03-26T17:41:55.682Z,14.12
2023-03-26T17:44:59.864Z,14.18
2023-03-26T17:48:10.812Z,14.24
2023-03-26T17:51:30.504Z,14.23
2023-03-26T17:54:44.424Z,14.14
2023-03-26T17:57:52.165Z,14.15
2023-03-26T18:01:27.776Z,14.15
2023-03-26T18:04:35.206Z,14.15
2023-03-26T18:07:57.110Z,14.06
2023-03-26T18:11:17.951Z,14.08
2023-03-26T18:14:49.238Z,14.00
2023-03-26T18:17:51.732Z,14.01
2023-03-26T18:20:55.243Z,14.06
2023-03-26T18:23:59.787Z,14.12
2023-03-26T18:27:14.953Z,14.07
2023-03-26T18:30:22.767Z,14.07
2023-03-26T18:33:26.553Z,13.96
2023-03-26T18:36:29.207Z,13.99
2023-03-26T18:39:31.600Z,14.03
2023-03-26T18:42:34.121Z,13.98
2023-03-26T18:45:37.836Z,13.97
2023-03-26T18:48:40.547Z,14.01
2023-03-26T18:51:56.292Z,13.97
2023-03-26T18:54:59.591Z,13.95
2023-03-26T18:58:31.119Z,13.95
2023-03-26T19:01:36.719Z,14.00
2023-03-26T19:04:39.451Z,13.90
2023-03-26T19:07:41.915Z,13.97
2023-03-26T19:10:48.549Z,13.96
2023-03-26T19:14:00.226Z,13.93
2023-03-26T19:17:03.937Z,13.92
2023-03-26T19:20:19.339Z,13.92
2023-03-26T19:23:23.473Z,13.93
2023-03-26T19:26:25.934Z,13.94
2023-03-26T19:29:34.684Z,13.76
2023-03-26T19:32:40.228Z,13.82
2023-03-26T19:35:51.288Z,13.84
2023-03-26T19:38:54.993Z,13.87
2023-03-26T19:41:57.549Z,13.77
2023-03-26T19:45:04.582Z,13.73
2023-03-26T19:48:14.431Z,13.72
2023-03-26T19:51:44.490Z,13.68
2023-03-26T19:55:01.430Z,13.62
2023-03-26T19:58:04.326Z,13.52
2023-03-26T20:01:07.126Z,13.45
2023-03-26T20:04:10.187Z,13.46
2023-03-26T20:07:14.850Z,13.49
2023-03-26T20:10:17.624Z,13.55
2023-03-26T20:13:20.555Z,13.51
2023-03-26T20:16:26.872Z,13.50
2023-03-26T20:19:29.709Z,13.54
2023-03-26T20:22:32.820Z,13.36
2023-03-26T20:25:35.456Z,13.38
2023-03-26T20:28:47.405Z,13.37
2023-03-26T20:31:50.928Z,13.26
2023-03-26T20:34:53.529Z,13.20
2023-03-26T20:37:55.969Z,13.03
2023-03-26T20:40:58.751Z,13.00
2023-03-26T20:44:03.725Z,13.03
2023-03-26T20:47:06.361Z,13.03
2023-03-26T20:50:10.190Z,12.97
2023-03-26T20:53:15.129Z,13.03
2023-03-26T20:56:18.655Z,13.10
2023-03-26T20:59:23.161Z,13.13
2023-03-26T21:02:25.915Z,13.16
2023-03-26T21:05:30.115Z,13.18
2023-03-26T21:08:36.045Z,13.09
2023-03-26T21:12:05.755Z,12.88
2023-03-26T21:15:22.476Z,12.84
2023-03-26T21:18:26.206Z,12.87
2023-03-26T21:21:57.685Z,12.92
2023-03-26T21:25:06.179Z,12.83
2023-03-26T21:28:41.332Z,12.83
2023-03-26T21:31:46.800Z,12.66
2023-03-26T21:34:58.476Z,12.83
2023-03-26T21:38:04.195Z,12.79
2023-03-26T21:41:07.033Z,12.69
2023-03-26T21:44:09.583Z,12.65
2023-03-26T21:47:12.436Z,12.54
2023-03-26T21:50:17.940Z,12.53
2023-03-26T21:53:22.170Z,12.54
2023-03-26T21:56:37.601Z,12.41
2023-03-26T22:00:08.339Z,12.25
2023-03-26T22:03:25.612Z,12.24
2023-03-26T22:06:50.648Z,12.25
2023-03-26T22:09:53.420Z,12.18
2023-03-26T22:12:55.911Z,12.15
2023-03-26T22:15:58.669Z,12.23
2023-03-26T22:19:01.192Z,12.17
2023-03-26T22:22:03.712Z,12.24
2023-03-26T22:25:06.162Z,12.23
2023-03-26T22:28:08.887Z,11.98
2023-03-26T22:31:12.090Z,11.87
2023-03-26T22:34:14.459Z,11.88
2023-03-26T22:37:17.689Z,11.77
2023-03-26T22:40:20.597Z,11.66
2023-03-26T22:43:23.571Z,11.51
2023-03-26T22:46:26.224Z,11.37
2023-03-26T22:49:30.421Z,11.29
2023-03-26T22:52:33.571Z,11.25
2023-03-26T22:55:36.495Z,11.22
2023-03-26T22:58:38.892Z,11.15
2023-03-26T23:01:41.578Z,11.25
2023-03-26T23:04:44.406Z,11.26
2023-03-26T23:07:47.433Z,11.30
2023-03-26T23:10:49.994Z,11.33
2023-03-26T23:13:52.635Z,11.24
2023-03-26T23:16:55.412Z,11.12
2023-03-26T23:19:57.849Z,11.11
2023-03-26T23:23:01.286Z,11.06
2023-03-26T23:26:06.818Z,11.06
2023-03-26T23:29:09.597Z,10.80
2023-03-26T23:32:24.603Z,10.50
2023-03-26T23:35:27.689Z,10.61
2023-03-26T23:38:43.034Z,10.58
2023-03-26T23:41:47.009Z,10.57
2023-03-26T23:44:49.493Z,10.21
2023-03-26T23:47:51.985Z,10.43
2023-03-26T23:51:04.421Z,10.34
2023-03-26T23:54:08.825Z,10.55
2023-03-26T23:57:11.797Z,10.53
